Arapahoe, Wyoming
Current Conditions -  °F | °C
As of 8:53 AM on Thursday 29 Jan 2015 (Local Time) from KRIW Reporting Station
Clear Clear  
Wind Chill: 29°   Ceiling: Unl
Heat Index: 33°   Visibility: 10mi
Dew Point: 29°   Wind: 5mph
Humidity: 85%   Direction: 300°WNW
Pressure: 30.44"   Gusts: NA
Location:  42.96°N, 108.49°W
Report Text: KRIW 291553Z AUTO 30004KT 10SM CLR 01/M02 A3044 RMK AO2 SLP323 T00061017
Loading
Personal Weather Stations






























Interactive Weather Map New forecast layout! Learn more

10-Day Weather Forecast

Advertisements
Track Severe Weather on mobile